createdAt,value
2022-12-18T00:04:38.269Z,-3.39
2022-12-18T00:09:40.639Z,-2.96
2022-12-18T00:14:41.958Z,-2.89
2022-12-18T00:19:43.237Z,-3.02
2022-12-18T00:24:44.546Z,-2.97
2022-12-18T00:29:45.922Z,-2.58
2022-12-18T00:34:47.232Z,-2.36
2022-12-18T00:39:48.540Z,-2.31
2022-12-18T00:44:49.794Z,-2.30
2022-12-18T00:49:51.057Z,-2.33
2022-12-18T00:54:52.313Z,-2.28
2022-12-18T00:59:53.594Z,-2.51
2022-12-18T01:04:54.893Z,-2.97
2022-12-18T01:09:56.158Z,-2.96
2022-12-18T01:14:57.393Z,-3.69
2022-12-18T01:19:58.706Z,-3.32
2022-12-18T01:24:59.954Z,-3.27
2022-12-18T01:30:01.157Z,-3.29
2022-12-18T01:35:02.442Z,-3.32
2022-12-18T01:40:03.645Z,-3.49
2022-12-18T01:45:04.906Z,-3.24
2022-12-18T01:50:06.188Z,-3.38
2022-12-18T01:55:07.437Z,-3.50
2022-12-18T02:00:08.744Z,-3.39
2022-12-18T02:05:10.006Z,-3.33
2022-12-18T02:10:11.207Z,-3.52
2022-12-18T02:15:12.484Z,-3.34
2022-12-18T02:20:14.942Z,-3.14
2022-12-18T02:25:16.193Z,-3.19
2022-12-18T02:30:17.441Z,-3.21
2022-12-18T02:35:18.711Z,-3.24
2022-12-18T02:40:19.920Z,-2.99
2022-12-18T02:45:21.233Z,-3.03
2022-12-18T02:50:22.457Z,-3.38
2022-12-18T02:55:23.699Z,-3.55
2022-12-18T03:00:25.074Z,-3.63
2022-12-18T03:05:26.370Z,-3.61
2022-12-18T03:10:27.901Z,-3.43
2022-12-18T03:15:29.157Z,-3.39
2022-12-18T03:20:31.104Z,-3.76
2022-12-18T03:25:32.350Z,-3.62
2022-12-18T03:30:33.725Z,-3.51
2022-12-18T03:35:35.141Z,-3.56
2022-12-18T03:40:36.478Z,-3.68
2022-12-18T03:45:37.874Z,-3.38
2022-12-18T03:50:39.136Z,-3.60
2022-12-18T03:55:40.416Z,-3.47
2022-12-18T04:00:41.657Z,-3.29
2022-12-18T04:05:42.885Z,-3.26
2022-12-18T04:10:44.128Z,-3.14
2022-12-18T04:15:45.452Z,-3.33
2022-12-18T04:20:47.143Z,-3.31
2022-12-18T04:25:48.379Z,-3.25
2022-12-18T04:30:49.762Z,-3.38
2022-12-18T04:35:51.109Z,-3.49
2022-12-18T04:40:52.396Z,-3.26
2022-12-18T04:45:53.657Z,-3.15
2022-12-18T04:50:54.920Z,-3.08
2022-12-18T04:55:56.256Z,-3.09
2022-12-18T05:00:57.756Z,-3.17
2022-12-18T05:05:58.996Z,-3.34
2022-12-18T05:11:00.450Z,-3.46
2022-12-18T05:16:04.124Z,-3.64
2022-12-18T05:21:05.672Z,-3.63
2022-12-18T05:26:07.109Z,-3.69
2022-12-18T05:31:08.417Z,-3.90
2022-12-18T05:36:09.689Z,-3.65
2022-12-18T05:41:10.983Z,-3.69
2022-12-18T05:46:12.240Z,-3.46
2022-12-18T05:51:13.512Z,-3.41
2022-12-18T05:56:15.566Z,-3.63
2022-12-18T06:01:16.907Z,-3.13
2022-12-18T06:06:18.209Z,-2.90
2022-12-18T06:11:19.441Z,-3.08
2022-12-18T06:16:20.827Z,-3.32
2022-12-18T06:21:22.219Z,-3.57
2022-12-18T06:26:27.990Z,-3.78
2022-12-18T06:31:29.742Z,-3.98
2022-12-18T06:36:32.036Z,-3.70
2022-12-18T06:41:33.346Z,-3.90
2022-12-18T06:46:34.631Z,-4.19
2022-12-18T06:51:35.848Z,-4.21
2022-12-18T06:56:37.044Z,-3.99
2022-12-18T07:01:38.449Z,-3.74
2022-12-18T07:06:39.823Z,-3.50
2022-12-18T07:11:41.195Z,-3.21
2022-12-18T07:16:42.435Z,-3.57
2022-12-18T07:21:43.656Z,-3.69
2022-12-18T07:26:44.922Z,-3.55
2022-12-18T07:31:46.226Z,-3.62
2022-12-18T07:36:47.498Z,-3.78
2022-12-18T07:42:08.679Z,-3.35
2022-12-18T07:47:12.170Z,-3.56
2022-12-18T07:52:13.707Z,-3.90
2022-12-18T07:57:41.375Z,-4.01
2022-12-18T08:02:36.237Z,-3.74
2022-12-18T08:07:37.496Z,-3.53
2022-12-18T08:12:38.736Z,-3.52
2022-12-18T08:17:39.978Z,-3.54
2022-12-18T08:22:41.318Z,-3.81
2022-12-18T08:27:42.662Z,-3.98
2022-12-18T08:32:43.876Z,-3.80
2022-12-18T08:37:45.386Z,-3.61
2022-12-18T08:43:07.264Z,-3.45
2022-12-18T08:48:08.483Z,-3.33
2022-12-18T08:53:10.172Z,-3.60
2022-12-18T08:58:11.473Z,-3.33
2022-12-18T09:03:12.811Z,-3.35
2022-12-18T09:08:14.316Z,-3.20
2022-12-18T09:13:16.441Z,-3.42
2022-12-18T09:18:17.905Z,-3.52
2022-12-18T09:23:19.140Z,-3.23
2022-12-18T09:28:20.490Z,-3.24
2022-12-18T09:33:21.904Z,-3.03
2022-12-18T09:38:24.392Z,-3.09
2022-12-18T09:43:33.930Z,-1.82
2022-12-18T09:48:35.188Z,-3.10
2022-12-18T09:53:36.450Z,-3.27
2022-12-18T09:58:38.293Z,-3.44
2022-12-18T10:03:39.705Z,-3.49
2022-12-18T10:08:41.320Z,-3.26
2022-12-18T10:13:42.829Z,-3.26
2022-12-18T10:18:44.206Z,-2.93
2022-12-18T10:23:48.331Z,-3.13
2022-12-18T10:28:49.911Z,-3.17
2022-12-18T10:33:51.870Z,-3.11
2022-12-18T10:38:53.107Z,-2.70
2022-12-18T10:43:54.338Z,-3.04
2022-12-18T10:48:55.730Z,-3.33
2022-12-18T10:53:56.981Z,-3.56
2022-12-18T10:58:58.229Z,-3.38
2022-12-18T11:04:02.381Z,-3.28
2022-12-18T11:09:12.317Z,-3.25
2022-12-18T11:14:16.841Z,-3.02
2022-12-18T11:19:18.341Z,-2.95
2022-12-18T11:24:19.827Z,-2.73
2022-12-18T11:29:22.996Z,-2.94
2022-12-18T11:34:29.513Z,-3.06
2022-12-18T11:39:31.348Z,-3.31
2022-12-18T11:44:32.627Z,-3.18
2022-12-18T11:49:34.775Z,-3.13
2022-12-18T11:54:36.007Z,-2.99
2022-12-18T11:59:37.394Z,-2.82
2022-12-18T12:04:38.663Z,-2.89
2022-12-18T12:09:41.552Z,-2.91
2022-12-18T12:14:42.780Z,-3.12
2022-12-18T12:19:44.033Z,-2.69
2022-12-18T12:24:45.270Z,-2.38
2022-12-18T12:29:46.518Z,-2.31
2022-12-18T12:34:47.930Z,-2.83
2022-12-18T12:39:49.226Z,-2.80
2022-12-18T12:44:56.030Z,-2.62
2022-12-18T12:49:58.003Z,-2.66
2022-12-18T12:54:59.244Z,-2.69
2022-12-18T13:00:00.861Z,-2.47
2022-12-18T13:05:02.375Z,-2.38
2022-12-18T13:10:03.624Z,-2.63
2022-12-18T13:15:08.825Z,-2.32
2022-12-18T13:20:12.936Z,-2.38
2022-12-18T13:25:15.305Z,-2.19
2022-12-18T13:30:16.591Z,-2.28
2022-12-18T13:35:18.557Z,-2.62
2022-12-18T13:40:22.672Z,-2.77
2022-12-18T13:45:23.897Z,-2.99
2022-12-18T13:50:25.363Z,-3.22
2022-12-18T13:55:27.018Z,-3.08
2022-12-18T14:00:31.414Z,-2.96
2022-12-18T14:05:32.725Z,-2.96
2022-12-18T14:10:47.974Z,-2.95
2022-12-18T14:15:50.901Z,-3.02
2022-12-18T14:20:53.107Z,-2.69
2022-12-18T14:25:54.626Z,-2.42
2022-12-18T14:30:55.885Z,-2.34
2022-12-18T14:35:57.178Z,-2.52
2022-12-18T14:40:58.437Z,-2.40
2022-12-18T14:45:59.674Z,-2.59
2022-12-18T14:51:00.935Z,-2.73
2022-12-18T14:56:02.159Z,-2.38
2022-12-18T15:01:03.496Z,-2.51
2022-12-18T15:06:04.774Z,-2.53
2022-12-18T15:11:11.783Z,-2.37
2022-12-18T15:16:14.403Z,-2.50
2022-12-18T15:21:15.616Z,-2.47
2022-12-18T15:26:16.878Z,-2.20
2022-12-18T15:31:18.318Z,-2.33
2022-12-18T15:36:26.113Z,-2.18
2022-12-18T15:41:28.151Z,-2.28
2022-12-18T15:46:29.566Z,-2.30
2022-12-18T15:51:30.878Z,-2.34
2022-12-18T15:56:50.993Z,-2.35
2022-12-18T16:01:53.941Z,-2.40
2022-12-18T16:07:14.275Z,-2.39
2022-12-18T16:12:16.452Z,-2.49
2022-12-18T16:17:17.778Z,-2.66
2022-12-18T16:22:19.166Z,-2.78
2022-12-18T16:27:20.410Z,-2.82
2022-12-18T16:32:21.643Z,-2.84
2022-12-18T16:37:22.884Z,-2.85
2022-12-18T16:42:24.178Z,-3.01
2022-12-18T16:47:25.405Z,-2.87
2022-12-18T16:52:26.628Z,-3.04
2022-12-18T16:57:27.986Z,-3.02
2022-12-18T17:02:29.461Z,-3.04
2022-12-18T17:07:31.091Z,-3.09
2022-12-18T17:12:32.332Z,-3.25
2022-12-18T17:17:33.600Z,-3.41
2022-12-18T17:22:34.861Z,-3.42
2022-12-18T17:27:36.087Z,-3.53
2022-12-18T17:32:37.354Z,-3.69
2022-12-18T17:37:38.612Z,-3.63
2022-12-18T17:42:39.815Z,-3.65
2022-12-18T17:47:42.084Z,-3.64
2022-12-18T17:52:43.449Z,-3.85
2022-12-18T17:57:44.685Z,-3.91
2022-12-18T18:02:46.384Z,-3.88
2022-12-18T18:07:47.725Z,-4.00
2022-12-18T18:13:07.725Z,-3.92
2022-12-18T18:18:09.011Z,-3.88
2022-12-18T18:23:12.338Z,-3.90
2022-12-18T18:28:14.050Z,-3.87
2022-12-18T18:33:15.353Z,-3.96
2022-12-18T18:38:16.615Z,-3.97
2022-12-18T18:43:17.826Z,-4.19
2022-12-18T18:48:19.073Z,-4.24
2022-12-18T18:53:20.272Z,-4.19
2022-12-18T18:58:21.524Z,-4.20
2022-12-18T19:03:24.947Z,-4.28
2022-12-18T19:08:26.235Z,-4.15
2022-12-18T19:13:27.451Z,-4.20
2022-12-18T19:18:28.945Z,-4.48
2022-12-18T19:23:30.309Z,-5.00
2022-12-18T19:28:31.593Z,-5.28
2022-12-18T19:33:48.184Z,-5.21
2022-12-18T19:38:49.524Z,-5.44
2022-12-18T19:43:50.775Z,-5.30
2022-12-18T19:48:52.064Z,-5.11
2022-12-18T19:53:58.206Z,-5.21
2022-12-18T19:59:00.350Z,-5.25
2022-12-18T20:04:01.889Z,-5.40
2022-12-18T20:09:03.880Z,-5.15
2022-12-18T20:14:06.572Z,-5.27
2022-12-18T20:19:07.864Z,-5.13
2022-12-18T20:24:09.307Z,-5.04
2022-12-18T20:29:10.537Z,-4.92
2022-12-18T20:34:12.069Z,-4.91
2022-12-18T20:39:14.423Z,-4.81
2022-12-18T20:44:23.627Z,-4.99
2022-12-18T20:49:25.452Z,-5.07
2022-12-18T20:54:28.725Z,-4.83
2022-12-18T20:59:30.011Z,-4.57
2022-12-18T21:04:31.373Z,-4.52
2022-12-18T21:09:37.768Z,-4.40
2022-12-18T21:14:39.869Z,-4.29
2022-12-18T21:19:42.349Z,-3.43
2022-12-18T21:24:44.236Z,-3.59
2022-12-18T21:29:45.735Z,-3.53
2022-12-18T21:34:48.339Z,-3.50
2022-12-18T21:39:50.007Z,-3.66
2022-12-18T21:44:51.473Z,-3.94
2022-12-18T21:49:53.015Z,-3.96
2022-12-18T21:54:54.423Z,-4.05
2022-12-18T21:59:55.660Z,-3.84
2022-12-18T22:04:56.883Z,-3.55
2022-12-18T22:09:58.320Z,-3.63
2022-12-18T22:15:00.961Z,-3.67
2022-12-18T22:20:02.217Z,-3.57
2022-12-18T22:25:03.584Z,-3.57
2022-12-18T22:30:04.873Z,-3.42
2022-12-18T22:35:09.488Z,-3.32
2022-12-18T22:40:12.211Z,-3.48
2022-12-18T22:45:15.012Z,-3.67
2022-12-18T22:50:16.272Z,-3.91
2022-12-18T22:55:17.550Z,-3.86
2022-12-18T23:00:23.974Z,-3.60
2022-12-18T23:05:26.078Z,-3.43
2022-12-18T23:10:27.451Z,-3.64
2022-12-18T23:15:28.837Z,-3.50
2022-12-18T23:20:30.568Z,-4.01
2022-12-18T23:25:31.876Z,-3.90
2022-12-18T23:30:33.109Z,-3.70
2022-12-18T23:35:34.451Z,-3.82
2022-12-18T23:40:35.716Z,-4.07
2022-12-18T23:45:36.971Z,-3.99
2022-12-18T23:50:38.190Z,-3.91
2022-12-18T23:55:39.824Z,-3.65
